createdAt,value
2019-01-21T00:01:58.074Z,-6.81
2019-01-21T00:04:26.699Z,-6.85
2019-01-21T00:06:55.579Z,-6.93
2019-01-21T00:09:24.194Z,-6.91
2019-01-21T00:11:52.786Z,-6.95
2019-01-21T00:14:21.742Z,-6.93
2019-01-21T00:16:50.343Z,-6.93
2019-01-21T00:19:18.962Z,-6.95
2019-01-21T00:21:47.560Z,-6.93
2019-01-21T00:24:16.215Z,-6.98
2019-01-21T00:26:45.152Z,-7.07
2019-01-21T00:29:14.252Z,-7.04
2019-01-21T00:31:43.165Z,-7.15
2019-01-21T00:34:11.760Z,-7.04
2019-01-21T00:36:40.701Z,-7.06
2019-01-21T00:39:09.301Z,-7.01
2019-01-21T00:41:37.887Z,-7.09
2019-01-21T00:44:06.866Z,-7.08
2019-01-21T00:46:35.750Z,-7.09
2019-01-21T00:51:39.686Z,-7.16
2019-01-21T00:54:08.295Z,-7.24
2019-01-21T00:56:36.886Z,-7.24
2019-01-21T00:59:05.521Z,-7.29
2019-01-21T01:01:34.129Z,-7.21
2019-01-21T01:04:03.085Z,-7.27
2019-01-21T01:06:31.686Z,-7.31
2019-01-21T01:09:00.651Z,-7.31
2019-01-21T01:11:29.242Z,-7.34
2019-01-21T01:13:58.225Z,-7.35
2019-01-21T01:16:27.113Z,-7.36
2019-01-21T01:18:55.719Z,-7.35
2019-01-21T01:21:24.299Z,-7.35
2019-01-21T01:23:52.938Z,-7.44
2019-01-21T01:26:21.562Z,-7.36
2019-01-21T01:28:50.542Z,-7.46
2019-01-21T01:31:19.124Z,-7.50
2019-01-21T01:33:47.721Z,-7.41
2019-01-21T01:36:16.315Z,-7.41
2019-01-21T01:38:44.919Z,-7.45
2019-01-21T01:41:13.509Z,-7.42
2019-01-21T01:43:42.128Z,-7.38
2019-01-21T01:46:10.716Z,-7.41
2019-01-21T01:48:39.341Z,-7.49
2019-01-21T01:51:08.276Z,-7.46
2019-01-21T01:53:37.013Z,-7.50
2019-01-21T01:56:05.606Z,-7.53
2019-01-21T01:58:34.538Z,-7.66
2019-01-21T02:01:03.160Z,-7.58
2019-01-21T02:03:31.763Z,-7.55
2019-01-21T02:06:00.491Z,-7.53
2019-01-21T02:08:29.112Z,-7.52
2019-01-21T02:10:58.065Z,-7.55
2019-01-21T02:13:26.674Z,-7.58
2019-01-21T02:15:55.288Z,-7.69
2019-01-21T02:18:23.935Z,-7.80
2019-01-21T02:23:31.089Z,-7.70
2019-01-21T02:26:00.028Z,-7.66
2019-01-21T02:28:50.047Z,-7.73
2019-01-21T02:31:40.055Z,-7.77
2019-01-21T02:37:11.982Z,-7.78
2019-01-21T02:42:28.554Z,-7.77
2019-01-21T02:45:15.844Z,-7.74
2019-01-21T02:47:44.818Z,-7.76
2019-01-21T02:50:13.755Z,-7.75
2019-01-21T02:53:01.315Z,-7.74
2019-01-21T02:55:51.803Z,-7.72
2019-01-21T02:58:23.836Z,-7.87
2019-01-21T03:01:08.289Z,-7.85
2019-01-21T03:09:15.661Z,-7.83
2019-01-21T03:12:03.058Z,-7.83
2019-01-21T03:14:53.529Z,-7.87
2019-01-21T03:17:37.466Z,-7.90
2019-01-21T03:22:56.299Z,-7.86
2019-01-21T03:25:24.950Z,-7.88
2019-01-21T03:28:12.027Z,-7.84
2019-01-21T03:30:59.767Z,-7.89
2019-01-21T03:33:59.148Z,-7.87
2019-01-21T03:36:40.119Z,-7.95
2019-01-21T03:44:45.296Z,-8.04
2019-01-21T03:47:26.258Z,-7.99
2019-01-21T03:50:07.181Z,-8.04
2019-01-21T03:52:38.902Z,-8.00
2019-01-21T03:55:07.573Z,-8.04
2019-01-21T03:57:51.277Z,-8.04
2019-01-21T04:00:23.079Z,-7.96
2019-01-21T04:03:03.778Z,-7.99
2019-01-21T04:05:35.449Z,-7.99
2019-01-21T04:08:13.111Z,-8.01
2019-01-21T04:11:13.419Z,-8.07
2019-01-21T04:13:57.178Z,-8.13
2019-01-21T04:16:59.479Z,-8.06
2019-01-21T04:19:53.332Z,-8.10
2019-01-21T04:25:12.890Z,-8.17
2019-01-21T04:28:19.047Z,-8.12
2019-01-21T04:30:56.759Z,-8.17
2019-01-21T04:33:43.617Z,-8.21
2019-01-21T04:36:17.977Z,-8.17
2019-01-21T04:39:07.730Z,-8.20
2019-01-21T04:41:55.473Z,-8.27
2019-01-21T04:44:52.181Z,-8.39
2019-01-21T04:53:30.357Z,-8.28
2019-01-21T04:59:01.855Z,-8.34
2019-01-21T05:04:50.003Z,-8.28
2019-01-21T05:10:22.472Z,-8.35
2019-01-21T05:12:57.100Z,-8.35
2019-01-21T05:18:41.221Z,-8.35
2019-01-21T05:21:10.254Z,-8.37
2019-01-21T05:24:09.649Z,-8.42
2019-01-21T05:26:56.398Z,-8.44
2019-01-21T05:29:34.052Z,-8.36
2019-01-21T05:35:03.171Z,-8.37
2019-01-21T05:37:31.802Z,-8.41
2019-01-21T05:45:48.153Z,-8.45
2019-01-21T05:48:35.500Z,-8.46
2019-01-21T05:51:29.370Z,-8.47
2019-01-21T05:54:10.343Z,-8.51
2019-01-21T05:56:45.032Z,-8.49
2019-01-21T05:59:22.721Z,-8.49
2019-01-21T06:01:54.280Z,-8.55
2019-01-21T06:04:28.670Z,-8.53
2019-01-21T06:09:44.838Z,-8.45
2019-01-21T06:12:13.742Z,-8.56
2019-01-21T06:17:45.683Z,-8.56
2019-01-21T06:20:17.725Z,-8.59
2019-01-21T06:22:49.634Z,-8.64
2019-01-21T06:25:43.168Z,-8.67
2019-01-21T06:31:24.234Z,-8.65
2019-01-21T06:34:08.282Z,-8.63
2019-01-21T06:39:30.781Z,-8.69
2019-01-21T06:42:14.716Z,-8.77
2019-01-21T06:47:33.666Z,-8.79
2019-01-21T06:50:21.526Z,-8.85
2019-01-21T06:52:59.633Z,-8.84
2019-01-21T06:55:46.800Z,-8.73
2019-01-21T06:58:36.917Z,-8.66
2019-01-21T07:01:11.297Z,-8.68
2019-01-21T07:06:39.708Z,-8.68
2019-01-21T07:14:59.968Z,-8.67
2019-01-21T07:17:31.581Z,-8.72
2019-01-21T07:20:18.621Z,-8.73
2019-01-21T07:25:43.865Z,-8.65
2019-01-21T07:28:12.490Z,-8.63
2019-01-21T07:31:06.353Z,-8.64
2019-01-21T07:33:41.134Z,-8.73
2019-01-21T07:36:15.635Z,-8.65
2019-01-21T07:38:46.945Z,-8.60
2019-01-21T07:44:33.825Z,-8.55
2019-01-21T07:47:26.860Z,-8.45
2019-01-21T07:53:10.122Z,-8.51
2019-01-21T07:56:12.803Z,-8.50
2019-01-21T07:59:12.762Z,-8.52
2019-01-21T08:04:38.673Z,-8.41
2019-01-21T08:07:07.646Z,-8.43
2019-01-21T08:12:58.468Z,-8.30
2019-01-21T08:15:45.665Z,-8.29
2019-01-21T08:21:05.161Z,-8.31
2019-01-21T08:23:33.802Z,-8.36
2019-01-21T08:28:49.873Z,-7.94
2019-01-21T08:34:15.693Z,-7.69
2019-01-21T08:39:56.530Z,-7.53
2019-01-21T08:42:44.002Z,-7.43
2019-01-21T08:45:15.660Z,-7.34
2019-01-21T08:48:05.720Z,-7.42
2019-01-21T08:50:34.632Z,-7.41
2019-01-21T08:53:18.361Z,-7.39
2019-01-21T08:58:50.220Z,-7.24
2019-01-21T09:01:28.000Z,-7.17
2019-01-21T09:07:06.083Z,-7.14
2019-01-21T09:09:35.049Z,-6.98
2019-01-21T09:12:07.010Z,-6.90
2019-01-21T09:14:54.729Z,-6.85
2019-01-21T09:20:29.581Z,-6.56
2019-01-21T09:25:42.623Z,-6.54
2019-01-21T09:28:20.480Z,-6.47
2019-01-21T09:31:07.852Z,-6.46
2019-01-21T09:36:39.507Z,-6.35
2019-01-21T09:45:07.818Z,-6.08
2019-01-21T09:47:36.707Z,-6.03
2019-01-21T09:50:05.328Z,-6.01
2019-01-21T09:52:34.277Z,-5.93
2019-01-21T09:55:03.166Z,-5.86
2019-01-21T09:57:33.415Z,-5.80
2019-01-21T10:00:00.670Z,-5.70
2019-01-21T10:02:29.304Z,-5.66
2019-01-21T10:04:57.931Z,-5.60
2019-01-21T10:07:39.186Z,-5.54
2019-01-21T10:13:14.281Z,-5.34
2019-01-21T10:18:49.184Z,-5.28
2019-01-21T10:21:36.589Z,-5.18
2019-01-21T10:24:08.359Z,-5.18
2019-01-21T10:27:01.247Z,-5.13
2019-01-21T10:32:55.312Z,-5.04
2019-01-21T10:35:39.561Z,-5.03
2019-01-21T10:38:46.527Z,-4.99
2019-01-21T10:41:18.392Z,-4.97
2019-01-21T10:47:14.136Z,-4.90
2019-01-21T10:49:46.087Z,-4.86
2019-01-21T10:52:39.639Z,-4.79
2019-01-21T10:55:30.751Z,-4.75
2019-01-21T10:58:17.983Z,-4.72
2019-01-21T11:01:05.545Z,-4.75
2019-01-21T11:06:49.608Z,-4.72
2019-01-21T11:12:17.716Z,-4.62
2019-01-21T11:17:46.476Z,-4.48
2019-01-21T11:20:17.823Z,-4.34
2019-01-21T11:26:07.187Z,-4.26
2019-01-21T11:28:47.838Z,-4.19
2019-01-21T11:31:25.436Z,-4.14
2019-01-21T11:37:22.311Z,-4.09
2019-01-21T11:42:38.802Z,-4.04
2019-01-21T11:45:19.419Z,-3.80
2019-01-21T11:48:00.031Z,-3.68
2019-01-21T11:50:53.411Z,-3.67
2019-01-21T11:53:27.791Z,-3.73
2019-01-21T11:58:59.642Z,-3.73
2019-01-21T12:04:37.265Z,-3.52
2019-01-21T12:10:34.125Z,-3.34
2019-01-21T12:19:09.045Z,-3.41
2019-01-21T12:24:44.234Z,-3.50
2019-01-21T12:27:22.275Z,-3.50
2019-01-21T12:30:09.758Z,-3.43
2019-01-21T12:32:47.931Z,-3.29
2019-01-21T12:35:25.929Z,-3.31
2019-01-21T12:38:13.523Z,-3.27
2019-01-21T12:40:45.162Z,-3.19
2019-01-21T12:46:07.604Z,-3.08
2019-01-21T12:48:39.313Z,-2.99
2019-01-21T12:51:30.082Z,-2.89
2019-01-21T12:54:02.079Z,-2.95
2019-01-21T12:56:33.715Z,-2.98
2019-01-21T12:59:05.059Z,-2.88
2019-01-21T13:04:33.992Z,-2.96
2019-01-21T13:16:11.225Z,-2.97
2019-01-21T13:19:10.913Z,-2.98
2019-01-21T13:21:57.977Z,-2.99
2019-01-21T13:24:35.599Z,-3.00
2019-01-21T13:27:06.997Z,-3.01
2019-01-21T13:29:35.641Z,-3.07
2019-01-21T13:32:07.201Z,-3.07
2019-01-21T13:43:01.443Z,-3.01
2019-01-21T13:46:09.163Z,-2.99
2019-01-21T13:51:49.319Z,-2.98
2019-01-21T13:57:17.626Z,-2.95
2019-01-21T14:02:40.069Z,-2.96
2019-01-21T14:05:21.042Z,-2.91
2019-01-21T14:08:01.960Z,-2.88
2019-01-21T14:10:36.637Z,-2.90
2019-01-21T14:13:17.375Z,-3.00
2019-01-21T14:18:36.719Z,-2.82
2019-01-21T14:21:30.454Z,-2.89
2019-01-21T14:24:02.001Z,-2.79
2019-01-21T14:26:39.904Z,-2.75
2019-01-21T14:29:08.888Z,-2.63
2019-01-21T14:31:43.380Z,-2.72
2019-01-21T14:34:15.069Z,-2.78
2019-01-21T14:42:34.139Z,-2.74
2019-01-21T14:45:24.000Z,-2.87
2019-01-21T14:47:58.365Z,-2.78
2019-01-21T14:51:05.244Z,-2.75
2019-01-21T14:53:55.110Z,-2.77
2019-01-21T15:04:56.121Z,-3.19
2019-01-21T15:07:27.540Z,-3.18
2019-01-21T15:15:37.878Z,-3.11
2019-01-21T15:18:25.226Z,-3.03
2019-01-21T15:21:08.833Z,-3.11
2019-01-21T15:23:49.877Z,-3.15
2019-01-21T15:26:24.625Z,-3.22
2019-01-21T15:31:37.405Z,-3.57
2019-01-21T15:34:11.672Z,-3.68
2019-01-21T15:36:47.379Z,-3.81
2019-01-21T15:39:15.323Z,-3.91
2019-01-21T15:41:53.647Z,-3.97
2019-01-21T15:47:06.760Z,-4.09
2019-01-21T15:49:35.363Z,-4.18
2019-01-21T15:52:13.067Z,-4.20
2019-01-21T15:54:47.900Z,-4.26
2019-01-21T16:00:21.848Z,-4.41
2019-01-21T16:03:08.703Z,-4.46
2019-01-21T16:05:46.381Z,-4.57
2019-01-21T16:08:15.335Z,-4.58
2019-01-21T16:10:49.919Z,-4.61
2019-01-21T16:16:03.387Z,-4.74
2019-01-21T16:21:35.375Z,-4.84
2019-01-21T16:24:13.120Z,-4.88
2019-01-21T16:26:42.050Z,-5.04
2019-01-21T16:29:17.232Z,-5.13
2019-01-21T16:31:45.845Z,-5.12
2019-01-21T16:34:17.408Z,-5.13
2019-01-21T16:37:11.598Z,-5.20
2019-01-21T16:39:52.571Z,-5.16
2019-01-21T16:42:21.104Z,-5.25
2019-01-21T16:44:50.045Z,-5.26
2019-01-21T16:47:18.654Z,-5.39
2019-01-21T16:49:47.615Z,-5.41
2019-01-21T16:52:16.528Z,-5.44
2019-01-21T16:54:45.129Z,-5.44
2019-01-21T16:57:13.743Z,-5.42
2019-01-21T16:59:42.654Z,-5.50
2019-01-21T17:02:11.286Z,-5.49
2019-01-21T17:04:39.878Z,-5.49
2019-01-21T17:07:08.513Z,-5.56
2019-01-21T17:09:37.113Z,-5.59
2019-01-21T17:12:05.751Z,-5.62
2019-01-21T17:14:34.360Z,-5.64
2019-01-21T17:17:03.227Z,-5.73
2019-01-21T17:19:31.838Z,-5.73
2019-01-21T17:22:00.808Z,-5.60
2019-01-21T17:24:29.401Z,-5.68
2019-01-21T17:26:58.019Z,-5.77
2019-01-21T17:29:26.605Z,-5.79
2019-01-21T17:31:55.538Z,-5.90
2019-01-21T17:34:24.154Z,-5.97
2019-01-21T17:36:52.788Z,-5.95
2019-01-21T17:39:21.695Z,-5.92
2019-01-21T17:41:50.366Z,-5.86
2019-01-21T17:44:18.969Z,-5.88
2019-01-21T17:46:47.581Z,-5.91
2019-01-21T17:49:16.452Z,-5.97
2019-01-21T17:51:45.058Z,-6.04
2019-01-21T17:54:13.663Z,-6.08
2019-01-21T17:56:42.572Z,-6.10
2019-01-21T17:59:11.181Z,-6.08
2019-01-21T18:01:40.158Z,-6.15
2019-01-21T18:04:08.786Z,-6.18
2019-01-21T18:06:37.728Z,-6.17
2019-01-21T18:09:06.721Z,-6.28
2019-01-21T18:11:41.023Z,-6.26
2019-01-21T18:14:03.936Z,-6.27
2019-01-21T18:16:32.551Z,-6.30
2019-01-21T18:19:01.152Z,-6.19
2019-01-21T18:21:29.768Z,-6.21
2019-01-21T18:23:58.719Z,-6.23
2019-01-21T18:26:27.702Z,-6.22
2019-01-21T18:28:56.303Z,-6.29
2019-01-21T18:31:25.200Z,-6.28
2019-01-21T18:33:54.064Z,-6.34
2019-01-21T18:36:22.967Z,-6.27
2019-01-21T18:38:51.563Z,-6.60
2019-01-21T18:43:59.004Z,-6.71
2019-01-21T18:46:27.932Z,-6.65
2019-01-21T18:48:56.843Z,-6.51
2019-01-21T18:51:25.452Z,-6.45
2019-01-21T18:53:54.381Z,-6.39
2019-01-21T18:56:23.001Z,-6.45
2019-01-21T18:58:51.603Z,-6.48
2019-01-21T19:01:20.503Z,-6.64
2019-01-21T19:03:49.101Z,-6.65
2019-01-21T19:06:18.119Z,-6.57
2019-01-21T19:08:46.710Z,-6.71
2019-01-21T19:11:15.334Z,-6.66
2019-01-21T19:13:44.279Z,-6.71
2019-01-21T19:16:12.898Z,-6.67
2019-01-21T19:18:41.840Z,-6.61
2019-01-21T19:21:10.450Z,-6.69
2019-01-21T19:23:39.038Z,-6.61
2019-01-21T19:26:07.655Z,-6.61
2019-01-21T19:28:36.254Z,-6.69
2019-01-21T19:31:04.882Z,-6.83
2019-01-21T19:33:33.497Z,-6.81
2019-01-21T19:36:02.092Z,-6.75
2019-01-21T19:38:30.698Z,-6.75
2019-01-21T19:40:59.364Z,-6.78
2019-01-21T19:43:27.991Z,-6.81
2019-01-21T19:45:56.608Z,-6.83
2019-01-21T19:48:25.233Z,-6.81
2019-01-21T19:50:54.103Z,-6.71
2019-01-21T19:53:22.712Z,-6.75
2019-01-21T19:55:51.299Z,-6.77
2019-01-21T19:58:20.008Z,-6.81
2019-01-21T20:00:48.571Z,-6.85
2019-01-21T20:03:17.573Z,-6.82
2019-01-21T20:05:46.698Z,-6.85
2019-01-21T20:08:15.442Z,-6.92
2019-01-21T20:10:44.411Z,-6.83
2019-01-21T20:13:13.076Z,-6.92
2019-01-21T20:15:41.673Z,-6.94
2019-01-21T20:18:10.312Z,-6.90
2019-01-21T20:20:38.987Z,-6.89
2019-01-21T20:23:07.927Z,-6.95
2019-01-21T20:25:36.908Z,-6.87
2019-01-21T20:28:05.530Z,-6.89
2019-01-21T20:30:34.146Z,-6.90
2019-01-21T20:33:03.036Z,-6.93
2019-01-21T20:35:31.618Z,-6.97
2019-01-21T20:38:00.649Z,-7.01
2019-01-21T20:40:29.632Z,-7.05
2019-01-21T20:42:58.248Z,-7.04
2019-01-21T20:45:27.110Z,-7.01
2019-01-21T20:47:55.722Z,-6.98
2019-01-21T20:50:25.041Z,-7.06
2019-01-21T20:52:54.137Z,-7.07
2019-01-21T20:55:22.714Z,-7.15
2019-01-21T20:57:51.648Z,-7.16
2019-01-21T21:02:59.154Z,-7.18
2019-01-21T21:05:28.263Z,-7.14
2019-01-21T21:07:57.249Z,-7.19
2019-01-21T21:10:26.076Z,-7.15
2019-01-21T21:12:54.672Z,-7.11
2019-01-21T21:15:26.465Z,-7.17
2019-01-21T21:17:55.465Z,-7.17
2019-01-21T21:20:24.335Z,-7.10
2019-01-21T21:22:52.968Z,-7.08
2019-01-21T21:25:21.596Z,-7.18
2019-01-21T21:27:50.227Z,-7.16
2019-01-21T21:33:03.331Z,-7.15
2019-01-21T21:35:32.242Z,-7.11
2019-01-21T21:38:00.863Z,-7.15
2019-01-21T21:40:29.458Z,-7.16
2019-01-21T21:42:58.057Z,-7.21
2019-01-21T21:45:27.914Z,-7.21
2019-01-21T21:47:55.261Z,-7.31
2019-01-21T21:50:27.379Z,-7.28
2019-01-21T21:52:56.275Z,-7.24
2019-01-21T21:55:24.971Z,-7.33
2019-01-21T21:57:53.579Z,-7.29
2019-01-21T22:00:22.193Z,-7.26
2019-01-21T22:02:50.824Z,-7.27
2019-01-21T22:05:19.797Z,-7.26
2019-01-21T22:07:48.410Z,-7.26
2019-01-21T22:10:20.506Z,-7.27
2019-01-21T22:12:48.676Z,-7.29
2019-01-21T22:15:17.326Z,-7.27
2019-01-21T22:17:46.293Z,-7.30
2019-01-21T22:20:18.284Z,-7.25
2019-01-21T22:22:46.860Z,-7.17
2019-01-21T22:25:15.453Z,-7.17
2019-01-21T22:27:44.404Z,-7.21
2019-01-21T22:30:19.512Z,-7.20
2019-01-21T22:32:48.428Z,-7.16
2019-01-21T22:35:17.028Z,-7.26
2019-01-21T22:37:45.997Z,-7.32
2019-01-21T22:40:18.003Z,-7.31
2019-01-21T22:42:46.621Z,-7.24
2019-01-21T22:45:15.265Z,-7.25
2019-01-21T22:47:43.937Z,-7.20
2019-01-21T22:50:12.559Z,-7.14
2019-01-21T22:52:41.985Z,-7.03
2019-01-21T22:55:09.828Z,-7.07
2019-01-21T22:57:38.451Z,-6.99
2019-01-21T23:00:16.149Z,-7.09
2019-01-21T23:02:45.117Z,-7.06
2019-01-21T23:05:13.736Z,-7.12
2019-01-21T23:07:42.318Z,-7.07
2019-01-21T23:10:10.914Z,-7.09
2019-01-21T23:12:39.543Z,-7.13
2019-01-21T23:15:08.168Z,-7.19
2019-01-21T23:17:36.774Z,-7.18
2019-01-21T23:20:05.702Z,-7.28
2019-01-21T23:22:34.593Z,-7.31
2019-01-21T23:25:03.592Z,-7.26
2019-01-21T23:27:32.182Z,-7.37
2019-01-21T23:30:00.799Z,-7.40
2019-01-21T23:32:29.377Z,-7.33
2019-01-21T23:34:58.311Z,-7.35
2019-01-21T23:37:26.909Z,-7.36
2019-01-21T23:39:55.806Z,-7.44
2019-01-21T23:42:24.416Z,-7.48
2019-01-21T23:44:53.027Z,-7.48
2019-01-21T23:47:21.938Z,-7.43
2019-01-21T23:49:50.961Z,-7.32
2019-01-21T23:52:19.618Z,-7.34
2019-01-21T23:54:48.272Z,-7.34
2019-01-21T23:57:17.198Z,-7.43
2019-01-21T23:59:45.802Z,-7.44
